sensor_id;sensor_type;location;lat;lon;timestamp;pressure;altitude;pressure_sealevel;temperature;humidity
29379;BME280;16362;47.202;15.258;2022-11-15T00:00:55;96358.75;;;5.32;100.00
29379;BME280;16362;47.202;15.258;2022-11-15T00:03:27;96354.84;;;5.36;100.00
29379;BME280;16362;47.202;15.258;2022-11-15T00:05:54;96357.50;;;5.36;100.00
29379;BME280;16362;47.202;15.258;2022-11-15T00:08:21;96357.06;;;5.40;100.00
29379;BME280;16362;47.202;15.258;2022-11-15T00:10:55;96358.72;;;5.22;100.00
29379;BME280;16362;47.202;15.258;2022-11-15T00:13:22;96355.53;;;5.18;100.00
29379;BME280;16362;47.202;15.258;2022-11-15T00:15:49;96359.31;;;5.16;100.00
29379;BME280;16362;47.202;15.258;2022-11-15T00:18:16;96360.00;;;5.18;100.00
29379;BME280;16362;47.202;15.258;2022-11-15T00:20:43;96361.66;;;5.19;100.00
29379;BME280;16362;47.202;15.258;2022-11-15T00:23:10;96361.53;;;5.20;100.00
29379;BME280;16362;47.202;15.258;2022-11-15T00:25:37;96358.47;;;5.25;100.00
29379;BME280;16362;47.202;15.258;2022-11-15T00:28:04;96356.66;;;5.26;100.00
29379;BME280;16362;47.202;15.258;2022-11-15T00:30:30;96354.84;;;5.26;100.00
29379;BME280;16362;47.202;15.258;2022-11-15T00:33:03;96348.84;;;5.24;100.00
29379;BME280;16362;47.202;15.258;2022-11-15T00:35:32;96351.06;;;5.29;100.00
29379;BME280;16362;47.202;15.258;2022-11-15T00:38:00;96348.19;;;5.32;100.00
29379;BME280;16362;47.202;15.258;2022-11-15T00:40:27;96349.56;;;5.36;100.00
29379;BME280;16362;47.202;15.258;2022-11-15T00:42:54;96345.66;;;5.40;100.00
29379;BME280;16362;47.202;15.258;2022-11-15T00:45:21;96342.72;;;5.43;100.00
29379;BME280;16362;47.202;15.258;2022-11-15T00:47:48;96332.81;;;5.45;100.00
29379;BME280;16362;47.202;15.258;2022-11-15T00:50:15;96329.06;;;5.48;100.00
29379;BME280;16362;47.202;15.258;2022-11-15T00:52:42;96324.19;;;5.53;100.00
29379;BME280;16362;47.202;15.258;2022-11-15T00:55:16;96315.41;;;5.52;100.00
29379;BME280;16362;47.202;15.258;2022-11-15T00:57:43;96315.56;;;5.51;100.00
29379;BME280;16362;47.202;15.258;2022-11-15T01:00:11;96314.69;;;5.50;100.00
29379;BME280;16362;47.202;15.258;2022-11-15T01:02:38;96315.25;;;5.54;100.00
29379;BME280;16362;47.202;15.258;2022-11-15T01:05:05;96315.81;;;5.57;100.00
29379;BME280;16362;47.202;15.258;2022-11-15T01:07:32;96309.38;;;5.60;100.00
29379;BME280;16362;47.202;15.258;2022-11-15T01:09:59;96311.22;;;5.60;100.00
29379;BME280;16362;47.202;15.258;2022-11-15T01:12:26;96313.56;;;5.63;100.00
29379;BME280;16362;47.202;15.258;2022-11-15T01:14:53;96314.94;;;5.67;100.00
29379;BME280;16362;47.202;15.258;2022-11-15T01:17:20;96307.84;;;5.67;100.00
29379;BME280;16362;47.202;15.258;2022-11-15T01:19:47;96312.31;;;5.67;100.00
29379;BME280;16362;47.202;15.258;2022-11-15T01:22:14;96300.19;;;5.74;100.00
29379;BME280;16362;47.202;15.258;2022-11-15T01:24:40;96300.88;;;5.66;100.00
29379;BME280;16362;47.202;15.258;2022-11-15T01:27:07;96310.81;;;5.64;100.00
29379;BME280;16362;47.202;15.258;2022-11-15T01:29:34;96299.66;;;5.61;100.00
29379;BME280;16362;47.202;15.258;2022-11-15T01:32:01;96300.47;;;5.61;100.00
29379;BME280;16362;47.202;15.258;2022-11-15T01:34:27;96293.78;;;5.57;100.00
29379;BME280;16362;47.202;15.258;2022-11-15T01:36:54;96294.94;;;5.45;100.00
29379;BME280;16362;47.202;15.258;2022-11-15T01:39:21;96288.97;;;5.43;100.00
29379;BME280;16362;47.202;15.258;2022-11-15T01:41:47;96288.56;;;5.37;100.00
29379;BME280;16362;47.202;15.258;2022-11-15T01:47:01;96294.25;;;5.33;100.00
29379;BME280;16362;47.202;15.258;2022-11-15T01:49:31;96303.31;;;5.30;100.00
29379;BME280;16362;47.202;15.258;2022-11-15T01:52:02;96299.16;;;5.28;100.00
29379;BME280;16362;47.202;15.258;2022-11-15T01:54:29;96298.00;;;5.30;100.00
29379;BME280;16362;47.202;15.258;2022-11-15T01:57:07;96298.28;;;5.27;100.00
29379;BME280;16362;47.202;15.258;2022-11-15T01:59:40;96295.97;;;5.14;100.00
29379;BME280;16362;47.202;15.258;2022-11-15T02:02:08;96295.53;;;5.09;100.00
29379;BME280;16362;47.202;15.258;2022-11-15T02:04:40;96290.53;;;5.06;100.00
29379;BME280;16362;47.202;15.258;2022-11-15T02:07:09;96291.22;;;5.08;100.00
29379;BME280;16362;47.202;15.258;2022-11-15T02:09:37;96281.06;;;5.13;100.00
29379;BME280;16362;47.202;15.258;2022-11-15T02:12:06;96281.31;;;5.20;100.00
29379;BME280;16362;47.202;15.258;2022-11-15T02:14:34;96276.56;;;5.23;100.00
29379;BME280;16362;47.202;15.258;2022-11-15T02:23:16;96268.78;;;5.22;100.00
29379;BME280;16362;47.202;15.258;2022-11-15T02:29:05;96269.09;;;5.09;100.00
29379;BME280;16362;47.202;15.258;2022-11-15T02:39:50;96268.66;;;4.94;100.00
29379;BME280;16362;47.202;15.258;2022-11-15T02:42:21;96257.66;;;4.89;100.00
29379;BME280;16362;47.202;15.258;2022-11-15T02:45:14;96253.91;;;4.92;100.00
29379;BME280;16362;47.202;15.258;2022-11-15T02:47:45;96254.72;;;4.92;100.00
29379;BME280;16362;47.202;15.258;2022-11-15T02:50:17;96258.09;;;4.94;100.00
29379;BME280;16362;47.202;15.258;2022-11-15T02:52:45;96257.22;;;4.94;100.00
29379;BME280;16362;47.202;15.258;2022-11-15T02:55:32;96258.78;;;4.86;100.00
29379;BME280;16362;47.202;15.258;2022-11-15T02:58:10;96251.00;;;4.85;100.00
29379;BME280;16362;47.202;15.258;2022-11-15T03:01:05;96258.78;;;4.86;100.00
29379;BME280;16362;47.202;15.258;2022-11-15T03:03:46;96252.66;;;4.86;100.00
29379;BME280;16362;47.202;15.258;2022-11-15T03:06:25;96250.13;;;4.75;100.00
29379;BME280;16362;47.202;15.258;2022-11-15T03:09:23;96260.19;;;4.71;100.00
29379;BME280;16362;47.202;15.258;2022-11-15T03:12:04;96248.34;;;4.75;100.00
29379;BME280;16362;47.202;15.258;2022-11-15T03:14:36;96244.59;;;4.78;100.00
29379;BME280;16362;47.202;15.258;2022-11-15T03:17:28;96242.06;;;4.76;100.00
29379;BME280;16362;47.202;15.258;2022-11-15T03:19:59;96238.16;;;4.70;100.00
29379;BME280;16362;47.202;15.258;2022-11-15T03:22:29;96245.97;;;4.52;100.00
29379;BME280;16362;47.202;15.258;2022-11-15T03:25:00;96238.16;;;4.51;100.00
29379;BME280;16362;47.202;15.258;2022-11-15T03:27:33;96238.03;;;4.52;100.00
29379;BME280;16362;47.202;15.258;2022-11-15T03:30:05;96225.38;;;4.56;100.00
29379;BME280;16362;47.202;15.258;2022-11-15T03:32:53;96222.03;;;4.54;100.00
29379;BME280;16362;47.202;15.258;2022-11-15T03:35:25;96225.22;;;4.48;100.00
29379;BME280;16362;47.202;15.258;2022-11-15T03:40:48;96220.16;;;4.15;100.00
29379;BME280;16362;47.202;15.258;2022-11-15T03:43:36;96226.00;;;4.19;100.00
29379;BME280;16362;47.202;15.258;2022-11-15T03:46:20;96225.63;;;4.24;100.00
29379;BME280;16362;47.202;15.258;2022-11-15T03:48:54;96223.94;;;4.22;100.00
29379;BME280;16362;47.202;15.258;2022-11-15T03:51:24;96229.22;;;4.22;100.00
29379;BME280;16362;47.202;15.258;2022-11-15T03:53:51;96222.13;;;4.23;100.00
29379;BME280;16362;47.202;15.258;2022-11-15T03:56:18;96216.97;;;4.21;100.00
29379;BME280;16362;47.202;15.258;2022-11-15T03:58:44;96216.69;;;4.15;100.00
29379;BME280;16362;47.202;15.258;2022-11-15T04:01:11;96211.66;;;4.02;100.00
29379;BME280;16362;47.202;15.258;2022-11-15T04:03:37;96218.06;;;3.99;100.00
29379;BME280;16362;47.202;15.258;2022-11-15T04:06:04;96218.44;;;4.04;100.00
29379;BME280;16362;47.202;15.258;2022-11-15T04:08:31;96211.09;;;4.08;100.00
29379;BME280;16362;47.202;15.258;2022-11-15T04:10:58;96212.06;;;4.07;100.00
29379;BME280;16362;47.202;15.258;2022-11-15T04:13:27;96209.72;;;4.04;100.00
29379;BME280;16362;47.202;15.258;2022-11-15T04:15:54;96205.25;;;4.04;100.00
29379;BME280;16362;47.202;15.258;2022-11-15T04:18:21;96211.88;;;3.89;100.00
29379;BME280;16362;47.202;15.258;2022-11-15T04:20:48;96215.50;;;3.88;100.00
29379;BME280;16362;47.202;15.258;2022-11-15T04:23:33;96214.66;;;3.87;100.00
29379;BME280;16362;47.202;15.258;2022-11-15T04:26:32;96218.72;;;3.92;100.00
29379;BME280;16362;47.202;15.258;2022-11-15T04:28:59;96201.91;;;3.93;100.00
29379;BME280;16362;47.202;15.258;2022-11-15T04:32:05;96208.81;;;3.84;100.00
29379;BME280;16362;47.202;15.258;2022-11-15T04:34:32;96202.53;;;3.75;100.00
29379;BME280;16362;47.202;15.258;2022-11-15T04:36:59;96191.66;;;3.59;100.00
29379;BME280;16362;47.202;15.258;2022-11-15T04:39:42;96196.22;;;3.57;100.00
29379;BME280;16362;47.202;15.258;2022-11-15T04:42:09;96194.28;;;3.59;100.00
29379;BME280;16362;47.202;15.258;2022-11-15T04:44:36;96193.06;;;3.63;100.00
29379;BME280;16362;47.202;15.258;2022-11-15T04:47:03;96195.53;;;3.54;100.00
29379;BME280;16362;47.202;15.258;2022-11-15T04:49:30;96193.28;;;3.50;100.00
29379;BME280;16362;47.202;15.258;2022-11-15T04:51:57;96186.19;;;3.50;100.00
29379;BME280;16362;47.202;15.258;2022-11-15T04:54:24;96182.59;;;3.51;100.00
29379;BME280;16362;47.202;15.258;2022-11-15T04:56:50;96176.16;;;3.44;100.00
29379;BME280;16362;47.202;15.258;2022-11-15T04:59:17;96177.41;;;3.40;100.00
29379;BME280;16362;47.202;15.258;2022-11-15T05:01:44;96172.13;;;3.40;100.00
29379;BME280;16362;47.202;15.258;2022-11-15T05:04:11;96164.34;;;3.39;100.00
29379;BME280;16362;47.202;15.258;2022-11-15T05:06:48;96171.41;;;3.38;100.00
29379;BME280;16362;47.202;15.258;2022-11-15T05:09:16;96176.06;;;3.25;100.00
29379;BME280;16362;47.202;15.258;2022-11-15T05:11:43;96165.03;;;3.10;100.00
29379;BME280;16362;47.202;15.258;2022-11-15T05:14:10;96164.66;;;3.14;100.00
29379;BME280;16362;47.202;15.258;2022-11-15T05:16:37;96160.38;;;3.23;100.00
29379;BME280;16362;47.202;15.258;2022-11-15T05:19:04;96161.09;;;3.25;100.00
29379;BME280;16362;47.202;15.258;2022-11-15T05:21:31;96154.13;;;3.24;100.00
29379;BME280;16362;47.202;15.258;2022-11-15T05:23:59;96149.59;;;3.26;100.00
29379;BME280;16362;47.202;15.258;2022-11-15T05:26:26;96141.41;;;3.29;100.00
29379;BME280;16362;47.202;15.258;2022-11-15T05:28:54;96138.50;;;3.32;100.00
29379;BME280;16362;47.202;15.258;2022-11-15T05:31:22;96145.03;;;3.38;100.00
29379;BME280;16362;47.202;15.258;2022-11-15T05:33:50;96131.69;;;3.40;100.00
29379;BME280;16362;47.202;15.258;2022-11-15T05:36:34;96138.78;;;3.39;100.00
29379;BME280;16362;47.202;15.258;2022-11-15T05:39:04;96143.94;;;3.41;100.00
29379;BME280;16362;47.202;15.258;2022-11-15T05:41:38;96143.38;;;3.37;100.00
29379;BME280;16362;47.202;15.258;2022-11-15T05:44:07;96132.78;;;3.27;100.00
29379;BME280;16362;47.202;15.258;2022-11-15T05:46:37;96136.03;;;3.10;100.00
29379;BME280;16362;47.202;15.258;2022-11-15T05:49:07;96139.38;;;3.12;100.00
29379;BME280;16362;47.202;15.258;2022-11-15T05:51:36;96140.91;;;3.14;100.00
29379;BME280;16362;47.202;15.258;2022-11-15T05:54:02;96139.97;;;3.15;100.00
29379;BME280;16362;47.202;15.258;2022-11-15T05:56:29;96141.88;;;3.13;100.00
29379;BME280;16362;47.202;15.258;2022-11-15T05:58:57;96138.94;;;3.07;100.00
29379;BME280;16362;47.202;15.258;2022-11-15T06:01:26;96138.56;;;3.11;100.00
29379;BME280;16362;47.202;15.258;2022-11-15T06:03:53;96141.75;;;3.15;100.00
29379;BME280;16362;47.202;15.258;2022-11-15T06:06:20;96142.59;;;3.15;100.00
29379;BME280;16362;47.202;15.258;2022-11-15T06:08:46;96146.06;;;3.16;100.00
29379;BME280;16362;47.202;15.258;2022-11-15T06:11:14;96143.94;;;3.10;100.00
29379;BME280;16362;47.202;15.258;2022-11-15T06:13:41;96152.25;;;3.05;100.00
29379;BME280;16362;47.202;15.258;2022-11-15T06:16:07;96147.25;;;3.02;100.00
29379;BME280;16362;47.202;15.258;2022-11-15T06:18:34;96150.97;;;2.99;100.00
29379;BME280;16362;47.202;15.258;2022-11-15T06:21:01;96158.75;;;3.01;100.00
29379;BME280;16362;47.202;15.258;2022-11-15T06:23:32;96153.97;;;2.95;100.00
29379;BME280;16362;47.202;15.258;2022-11-15T06:26:00;96159.84;;;2.98;100.00
29379;BME280;16362;47.202;15.258;2022-11-15T06:28:29;96163.97;;;2.91;100.00
29379;BME280;16362;47.202;15.258;2022-11-15T06:30:56;96168.69;;;2.97;100.00
29379;BME280;16362;47.202;15.258;2022-11-15T06:33:23;96173.97;;;2.97;100.00
29379;BME280;16362;47.202;15.258;2022-11-15T06:35:50;96171.66;;;3.04;100.00
29379;BME280;16362;47.202;15.258;2022-11-15T06:38:16;96167.28;;;3.14;100.00
29379;BME280;16362;47.202;15.258;2022-11-15T06:40:43;96166.06;;;3.18;100.00
29379;BME280;16362;47.202;15.258;2022-11-15T06:43:10;96164.97;;;3.21;100.00
29379;BME280;16362;47.202;15.258;2022-11-15T06:45:36;96162.19;;;3.23;100.00
29379;BME280;16362;47.202;15.258;2022-11-15T06:48:03;96166.19;;;3.17;100.00
29379;BME280;16362;47.202;15.258;2022-11-15T06:50:30;96171.59;;;3.15;100.00
29379;BME280;16362;47.202;15.258;2022-11-15T06:53:00;96172.56;;;3.14;100.00
29379;BME280;16362;47.202;15.258;2022-11-15T06:55:28;96181.59;;;3.22;100.00
29379;BME280;16362;47.202;15.258;2022-11-15T06:57:54;96180.56;;;3.34;100.00
29379;BME280;16362;47.202;15.258;2022-11-15T07:00:21;96185.75;;;3.45;100.00
29379;BME280;16362;47.202;15.258;2022-11-15T07:02:49;96183.28;;;3.53;100.00
29379;BME280;16362;47.202;15.258;2022-11-15T07:05:15;96176.78;;;3.58;100.00
29379;BME280;16362;47.202;15.258;2022-11-15T07:07:42;96182.75;;;3.60;100.00
29379;BME280;16362;47.202;15.258;2022-11-15T07:10:09;96176.22;;;3.64;100.00
29379;BME280;16362;47.202;15.258;2022-11-15T07:12:36;96178.34;;;3.70;100.00
29379;BME280;16362;47.202;15.258;2022-11-15T07:15:03;96172.41;;;3.78;100.00
29379;BME280;16362;47.202;15.258;2022-11-15T07:17:30;96177.00;;;3.85;100.00
29379;BME280;16362;47.202;15.258;2022-11-15T07:19:56;96177.16;;;3.94;100.00
29379;BME280;16362;47.202;15.258;2022-11-15T07:22:23;96178.97;;;4.03;100.00
29379;BME280;16362;47.202;15.258;2022-11-15T07:24:50;96184.69;;;4.08;100.00
29379;BME280;16362;47.202;15.258;2022-11-15T07:27:16;96185.00;;;4.15;100.00
29379;BME280;16362;47.202;15.258;2022-11-15T07:29:43;96180.00;;;4.21;100.00
29379;BME280;16362;47.202;15.258;2022-11-15T07:32:10;96178.22;;;4.32;100.00
29379;BME280;16362;47.202;15.258;2022-11-15T07:34:37;96176.69;;;4.39;100.00
29379;BME280;16362;47.202;15.258;2022-11-15T07:37:04;96170.28;;;4.42;100.00
29379;BME280;16362;47.202;15.258;2022-11-15T07:39:30;96165.81;;;4.42;100.00
29379;BME280;16362;47.202;15.258;2022-11-15T07:41:57;96165.44;;;4.47;100.00
29379;BME280;16362;47.202;15.258;2022-11-15T07:44:42;96167.34;;;4.54;100.00
29379;BME280;16362;47.202;15.258;2022-11-15T07:47:09;96172.81;;;4.63;100.00
29379;BME280;16362;47.202;15.258;2022-11-15T07:49:36;96159.00;;;4.69;100.00
29379;BME280;16362;47.202;15.258;2022-11-15T07:52:02;96157.47;;;4.76;100.00
29379;BME280;16362;47.202;15.258;2022-11-15T07:54:29;96155.22;;;4.81;100.00
29379;BME280;16362;47.202;15.258;2022-11-15T07:56:56;96155.50;;;4.88;100.00
29379;BME280;16362;47.202;15.258;2022-11-15T07:59:26;96149.66;;;4.94;100.00
29379;BME280;16362;47.202;15.258;2022-11-15T08:01:53;96141.00;;;5.02;100.00
29379;BME280;16362;47.202;15.258;2022-11-15T08:04:19;96139.16;;;5.12;100.00
29379;BME280;16362;47.202;15.258;2022-11-15T08:06:46;96141.78;;;5.22;100.00
29379;BME280;16362;47.202;15.258;2022-11-15T08:09:13;96131.44;;;5.29;100.00
29379;BME280;16362;47.202;15.258;2022-11-15T08:11:39;96132.56;;;5.36;100.00
29379;BME280;16362;47.202;15.258;2022-11-15T08:14:06;96135.97;;;5.46;100.00
29379;BME280;16362;47.202;15.258;2022-11-15T08:16:33;96134.56;;;5.52;100.00
29379;BME280;16362;47.202;15.258;2022-11-15T08:18:59;96133.16;;;5.57;100.00
29379;BME280;16362;47.202;15.258;2022-11-15T08:21:26;96124.88;;;5.70;100.00
29379;BME280;16362;47.202;15.258;2022-11-15T08:23:53;96121.34;;;5.80;100.00
29379;BME280;16362;47.202;15.258;2022-11-15T08:26:20;96115.31;;;5.87;100.00
29379;BME280;16362;47.202;15.258;2022-11-15T08:28:46;96116.78;;;6.00;100.00
29379;BME280;16362;47.202;15.258;2022-11-15T08:31:15;96117.53;;;6.10;100.00
29379;BME280;16362;47.202;15.258;2022-11-15T08:33:43;96112.13;;;6.12;100.00
29379;BME280;16362;47.202;15.258;2022-11-15T08:36:15;96110.94;;;6.14;100.00
29379;BME280;16362;47.202;15.258;2022-11-15T08:38:42;96105.06;;;6.20;100.00
29379;BME280;16362;47.202;15.258;2022-11-15T08:41:13;96108.00;;;6.35;100.00
29379;BME280;16362;47.202;15.258;2022-11-15T08:43:42;96106.34;;;6.34;100.00
29379;BME280;16362;47.202;15.258;2022-11-15T08:46:12;96094.59;;;6.37;100.00
29379;BME280;16362;47.202;15.258;2022-11-15T08:48:39;96096.81;;;6.42;100.00
29379;BME280;16362;47.202;15.258;2022-11-15T08:51:06;96089.63;;;6.34;100.00
29379;BME280;16362;47.202;15.258;2022-11-15T08:53:33;96087.50;;;6.37;100.00
29379;BME280;16362;47.202;15.258;2022-11-15T08:56:01;96086.72;;;6.45;100.00
29379;BME280;16362;47.202;15.258;2022-11-15T08:58:28;96090.38;;;6.44;100.00
29379;BME280;16362;47.202;15.258;2022-11-15T09:00:55;96094.19;;;6.68;100.00
29379;BME280;16362;47.202;15.258;2022-11-15T09:03:22;96089.09;;;6.74;100.00
29379;BME280;16362;47.202;15.258;2022-11-15T09:05:48;96102.78;;;6.62;100.00
29379;BME280;16362;47.202;15.258;2022-11-15T09:08:20;96095.31;;;6.65;100.00
29379;BME280;16362;47.202;15.258;2022-11-15T09:11:08;96096.63;;;6.61;100.00
29379;BME280;16362;47.202;15.258;2022-11-15T09:13:35;96088.81;;;6.60;100.00
29379;BME280;16362;47.202;15.258;2022-11-15T09:16:04;96088.81;;;6.60;100.00
29379;BME280;16362;47.202;15.258;2022-11-15T09:18:31;96083.53;;;6.60;100.00
29379;BME280;16362;47.202;15.258;2022-11-15T09:20:59;96080.19;;;6.57;100.00
29379;BME280;16362;47.202;15.258;2022-11-15T09:23:26;96076.09;;;6.63;100.00
29379;BME280;16362;47.202;15.258;2022-11-15T09:26:01;96078.28;;;6.68;100.00
29379;BME280;16362;47.202;15.258;2022-11-15T09:28:29;96072.03;;;6.77;100.00
29379;BME280;16362;47.202;15.258;2022-11-15T09:31:01;96070.13;;;6.87;100.00
29379;BME280;16362;47.202;15.258;2022-11-15T09:33:28;96073.13;;;6.93;100.00
29379;BME280;16362;47.202;15.258;2022-11-15T09:36:07;96068.06;;;7.07;100.00
29379;BME280;16362;47.202;15.258;2022-11-15T09:38:34;96069.16;;;7.23;100.00
29379;BME280;16362;47.202;15.258;2022-11-15T09:49:22;96053.84;;;7.51;100.00
29379;BME280;16362;47.202;15.258;2022-11-15T09:51:51;96050.53;;;7.49;100.00
29379;BME280;16362;47.202;15.258;2022-11-15T09:54:37;96047.03;;;7.49;100.00
29379;BME280;16362;47.202;15.258;2022-11-15T10:03:08;96035.50;;;7.74;100.00
29379;BME280;16362;47.202;15.258;2022-11-15T10:05:44;96029.19;;;7.67;100.00
29379;BME280;16362;47.202;15.258;2022-11-15T10:11:00;96009.75;;;7.83;100.00
29379;BME280;16362;47.202;15.258;2022-11-15T10:13:48;95999.19;;;8.00;100.00
29379;BME280;16362;47.202;15.258;2022-11-15T10:16:47;96003.81;;;8.14;100.00
29379;BME280;16362;47.202;15.258;2022-11-15T10:24:37;95991.53;;;8.38;100.00
29379;BME280;16362;47.202;15.258;2022-11-15T10:27:11;95986.38;;;8.45;100.00
29379;BME280;16362;47.202;15.258;2022-11-15T10:29:43;95984.56;;;8.45;100.00
29379;BME280;16362;47.202;15.258;2022-11-15T10:32:12;95976.59;;;8.45;100.00
29379;BME280;16362;47.202;15.258;2022-11-15T10:34:39;95973.91;;;8.53;100.00
29379;BME280;16362;47.202;15.258;2022-11-15T10:37:06;95965.44;;;8.58;100.00
29379;BME280;16362;47.202;15.258;2022-11-15T10:39:33;95964.59;;;8.57;100.00
29379;BME280;16362;47.202;15.258;2022-11-15T10:42:26;95953.78;;;8.59;100.00
29379;BME280;16362;47.202;15.258;2022-11-15T10:44:54;95946.31;;;8.63;100.00
29379;BME280;16362;47.202;15.258;2022-11-15T10:47:29;95934.53;;;8.57;100.00
29379;BME280;16362;47.202;15.258;2022-11-15T10:50:24;95934.81;;;8.70;100.00
29379;BME280;16362;47.202;15.258;2022-11-15T10:52:52;95920.47;;;8.88;100.00
29379;BME280;16362;47.202;15.258;2022-11-15T10:55:25;95918.50;;;9.13;100.00
29379;BME280;16362;47.202;15.258;2022-11-15T10:57:58;95919.41;;;9.37;100.00
29379;BME280;16362;47.202;15.258;2022-11-15T11:00:37;95911.91;;;9.64;100.00
29379;BME280;16362;47.202;15.258;2022-11-15T11:03:28;95900.56;;;9.85;100.00
29379;BME280;16362;47.202;15.258;2022-11-15T11:06:13;95893.91;;;10.04;100.00
29379;BME280;16362;47.202;15.258;2022-11-15T11:08:57;95888.81;;;10.17;100.00
29379;BME280;16362;47.202;15.258;2022-11-15T11:11:24;95885.63;;;10.22;100.00
29379;BME280;16362;47.202;15.258;2022-11-15T11:13:52;95884.25;;;10.26;100.00
29379;BME280;16362;47.202;15.258;2022-11-15T11:16:20;95866.84;;;10.30;100.00
29379;BME280;16362;47.202;15.258;2022-11-15T11:24:44;95856.03;;;10.47;100.00
29379;BME280;16362;47.202;15.258;2022-11-15T11:37:56;95820.66;;;10.29;100.00
29379;BME280;16362;47.202;15.258;2022-11-15T11:40:52;95814.72;;;10.27;100.00
29379;BME280;16362;47.202;15.258;2022-11-15T11:43:34;95810.09;;;10.21;100.00
29379;BME280;16362;47.202;15.258;2022-11-15T11:46:15;95817.84;;;10.16;100.00
29379;BME280;16362;47.202;15.258;2022-11-15T11:48:47;95816.78;;;10.02;100.00
29379;BME280;16362;47.202;15.258;2022-11-15T11:51:19;95813.09;;;9.88;100.00
29379;BME280;16362;47.202;15.258;2022-11-15T11:53:53;95813.81;;;9.82;100.00
29379;BME280;16362;47.202;15.258;2022-11-15T11:56:29;95795.16;;;9.82;100.00
29379;BME280;16362;47.202;15.258;2022-11-15T11:59:05;95788.66;;;9.85;100.00
29379;BME280;16362;47.202;15.258;2022-11-15T12:01:37;95780.53;;;9.78;100.00
29379;BME280;16362;47.202;15.258;2022-11-15T12:04:30;95776.31;;;9.69;100.00
29379;BME280;16362;47.202;15.258;2022-11-15T12:07:08;95771.72;;;9.63;100.00
29379;BME280;16362;47.202;15.258;2022-11-15T12:12:49;95756.81;;;9.53;100.00
29379;BME280;16362;47.202;15.258;2022-11-15T12:15:21;95759.22;;;9.63;100.00
29379;BME280;16362;47.202;15.258;2022-11-15T12:17:49;95755.72;;;9.63;100.00
29379;BME280;16362;47.202;15.258;2022-11-15T12:20:21;95751.31;;;9.70;100.00
29379;BME280;16362;47.202;15.258;2022-11-15T12:23:23;95748.81;;;9.53;100.00
29379;BME280;16362;47.202;15.258;2022-11-15T12:26:04;95751.25;;;9.40;100.00
29379;BME280;16362;47.202;15.258;2022-11-15T12:28:50;95744.34;;;9.31;100.00
29379;BME280;16362;47.202;15.258;2022-11-15T12:31:41;95741.03;;;9.29;100.00
29379;BME280;16362;47.202;15.258;2022-11-15T12:36:50;95738.38;;;9.29;100.00
29379;BME280;16362;47.202;15.258;2022-11-15T12:39:18;95734.44;;;9.24;100.00
29379;BME280;16362;47.202;15.258;2022-11-15T13:00:00;95732.84;;;8.92;100.00
29379;BME280;16362;47.202;15.258;2022-11-15T13:02:41;95737.72;;;8.80;100.00
29379;BME280;16362;47.202;15.258;2022-11-15T13:30:37;95734.25;;;8.48;100.00
29379;BME280;16362;47.202;15.258;2022-11-15T13:33:18;95730.72;;;8.56;100.00
29379;BME280;16362;47.202;15.258;2022-11-15T13:35:48;95736.28;;;8.46;100.00
29379;BME280;16362;47.202;15.258;2022-11-15T13:38:27;95726.97;;;8.42;100.00
29379;BME280;16362;47.202;15.258;2022-11-15T13:40:56;95729.03;;;8.23;100.00
29379;BME280;16362;47.202;15.258;2022-11-15T13:48:46;95721.63;;;8.11;100.00
29379;BME280;16362;47.202;15.258;2022-11-15T13:53:54;95714.31;;;8.04;100.00
29379;BME280;16362;47.202;15.258;2022-11-15T13:56:22;95713.69;;;7.94;100.00
29379;BME280;16362;47.202;15.258;2022-11-15T13:58:49;95707.25;;;7.88;100.00
29379;BME280;16362;47.202;15.258;2022-11-15T14:01:18;95705.91;;;7.92;100.00
29379;BME280;16362;47.202;15.258;2022-11-15T14:03:56;95706.75;;;7.93;100.00
29379;BME280;16362;47.202;15.258;2022-11-15T14:06:25;95710.22;;;7.93;100.00
29379;BME280;16362;47.202;15.258;2022-11-15T14:09:03;95715.59;;;7.77;100.00
29379;BME280;16362;47.202;15.258;2022-11-15T14:11:30;95715.25;;;7.80;100.00
29379;BME280;16362;47.202;15.258;2022-11-15T14:16:47;95713.63;;;7.63;100.00
29379;BME280;16362;47.202;15.258;2022-11-15T14:24:38;95708.13;;;7.64;100.00
29379;BME280;16362;47.202;15.258;2022-11-15T14:29:47;95698.38;;;7.56;100.00
29379;BME280;16362;47.202;15.258;2022-11-15T14:32:23;95694.84;;;7.64;100.00
29379;BME280;16362;47.202;15.258;2022-11-15T14:34:56;95693.72;;;7.58;100.00
29379;BME280;16362;47.202;15.258;2022-11-15T14:37:29;95688.22;;;7.60;100.00
29379;BME280;16362;47.202;15.258;2022-11-15T14:39:59;95691.06;;;7.58;100.00
29379;BME280;16362;47.202;15.258;2022-11-15T14:42:26;95694.69;;;7.57;100.00
29379;BME280;16362;47.202;15.258;2022-11-15T14:44:52;95686.91;;;7.56;100.00
29379;BME280;16362;47.202;15.258;2022-11-15T14:47:19;95690.25;;;7.50;100.00
29379;BME280;16362;47.202;15.258;2022-11-15T14:49:46;95689.41;;;7.49;100.00
29379;BME280;16362;47.202;15.258;2022-11-15T14:52:23;95691.91;;;7.51;100.00
29379;BME280;16362;47.202;15.258;2022-11-15T14:54:59;95687.94;;;7.47;100.00
29379;BME280;16362;47.202;15.258;2022-11-15T14:57:26;95689.59;;;7.48;100.00
29379;BME280;16362;47.202;15.258;2022-11-15T14:59:52;95683.63;;;7.54;100.00
29379;BME280;16362;47.202;15.258;2022-11-15T15:02:25;95690.44;;;7.48;100.00
29379;BME280;16362;47.202;15.258;2022-11-15T15:04:53;95684.81;;;7.43;100.00
29379;BME280;16362;47.202;15.258;2022-11-15T15:07:20;95675.00;;;7.44;100.00
29379;BME280;16362;47.202;15.258;2022-11-15T15:09:47;95674.00;;;7.45;100.00
29379;BME280;16362;47.202;15.258;2022-11-15T15:12:22;95673.34;;;7.42;100.00
29379;BME280;16362;47.202;15.258;2022-11-15T15:14:49;95666.53;;;7.40;100.00
29379;BME280;16362;47.202;15.258;2022-11-15T15:17:17;95661.56;;;7.37;100.00
29379;BME280;16362;47.202;15.258;2022-11-15T15:19:43;95656.97;;;7.31;100.00